createdAt,value
2019-05-01T00:01:45.392Z,19.20
2019-05-01T00:04:18.263Z,19.00
2019-05-01T00:06:51.235Z,20.80
2019-05-01T00:09:24.531Z,19.20
2019-05-01T00:11:57.585Z,21.20
2019-05-01T00:14:30.770Z,23.00
2019-05-01T00:17:03.834Z,21.60
2019-05-01T00:19:36.717Z,21.80
2019-05-01T00:22:09.714Z,21.20
2019-05-01T00:24:42.590Z,20.60
2019-05-01T00:27:15.675Z,22.20
2019-05-01T00:29:48.570Z,20.20
2019-05-01T00:32:21.748Z,18.00
2019-05-01T00:34:54.910Z,23.60
2019-05-01T00:37:27.815Z,21.80
2019-05-01T00:40:01.471Z,21.00
2019-05-01T00:42:34.449Z,21.00
2019-05-01T00:45:07.527Z,19.20
2019-05-01T00:47:40.516Z,18.00
2019-05-01T00:50:13.582Z,20.00
2019-05-01T00:52:46.543Z,19.60
2019-05-01T00:55:19.498Z,20.00
2019-05-01T00:57:52.463Z,18.40
2019-05-01T01:00:25.363Z,18.40
2019-05-01T01:02:58.307Z,16.40
2019-05-01T01:05:31.280Z,18.80
2019-05-01T01:08:04.505Z,18.40
2019-05-01T01:10:38.034Z,17.20
2019-05-01T01:13:10.910Z,17.60
2019-05-01T01:15:43.837Z,17.00
2019-05-01T01:18:16.815Z,19.20
2019-05-01T01:20:49.791Z,18.40
2019-05-01T01:23:22.998Z,17.60
2019-05-01T01:25:55.994Z,18.40
2019-05-01T01:28:30.064Z,16.20
2019-05-01T01:31:05.115Z,18.40
2019-05-01T01:33:38.523Z,17.40
2019-05-01T01:36:22.453Z,19.60
2019-05-01T01:39:00.547Z,18.40
2019-05-01T01:41:34.643Z,17.80
2019-05-01T01:44:09.924Z,21.40
2019-05-01T01:47:01.223Z,20.60
2019-05-01T01:49:39.908Z,20.20
2019-05-01T01:52:18.738Z,18.60
2019-05-01T01:54:55.159Z,18.00
2019-05-01T01:57:43.912Z,19.80
2019-05-01T02:00:17.104Z,14.60
2019-05-01T02:02:51.405Z,15.00
2019-05-01T02:05:27.551Z,16.60
2019-05-01T02:08:02.248Z,15.60
2019-05-01T02:10:45.383Z,16.40
2019-05-01T02:13:20.872Z,15.20
2019-05-01T02:16:01.137Z,14.80
2019-05-01T02:18:35.441Z,16.80
2019-05-01T02:21:15.150Z,16.60
2019-05-01T02:23:49.038Z,15.60
2019-05-01T02:26:25.275Z,16.40
2019-05-01T02:29:01.530Z,17.20
2019-05-01T02:31:38.111Z,13.80
2019-05-01T02:34:16.713Z,14.80
2019-05-01T02:36:53.818Z,12.60
2019-05-01T02:39:32.474Z,16.40
2019-05-01T02:42:10.440Z,16.00
2019-05-01T02:44:49.362Z,15.60
2019-05-01T02:47:27.177Z,15.40
2019-05-01T02:50:32.467Z,18.60
2019-05-01T02:53:07.007Z,17.40
2019-05-01T02:55:52.818Z,14.60
2019-05-01T02:58:30.018Z,14.40
2019-05-01T03:01:14.284Z,16.20
2019-05-01T03:03:50.313Z,16.20
2019-05-01T03:06:27.871Z,16.00
2019-05-01T03:09:04.546Z,15.60
2019-05-01T03:11:41.982Z,14.40
2019-05-01T03:14:19.373Z,15.40
2019-05-01T03:16:56.356Z,16.00
2019-05-01T03:19:35.816Z,16.60
2019-05-01T03:22:11.938Z,16.20
2019-05-01T03:24:52.065Z,16.00
2019-05-01T03:27:27.911Z,17.20
2019-05-01T03:30:10.678Z,15.00
2019-05-01T03:32:49.321Z,14.20
2019-05-01T03:35:28.091Z,13.40
2019-05-01T03:38:16.756Z,14.60
2019-05-01T03:40:56.254Z,17.60
2019-05-01T03:43:34.058Z,13.00
2019-05-01T03:46:09.859Z,12.60
2019-05-01T03:48:50.235Z,14.00
2019-05-01T03:51:30.269Z,12.00
2019-05-01T03:54:10.216Z,11.60
2019-05-01T03:56:47.662Z,12.40
2019-05-01T03:59:24.708Z,13.60
2019-05-01T04:02:02.787Z,12.60
2019-05-01T04:04:42.052Z,15.00
2019-05-01T04:07:27.920Z,11.60
2019-05-01T04:10:06.922Z,12.40
2019-05-01T04:12:42.110Z,13.00
2019-05-01T04:15:18.875Z,13.40
2019-05-01T04:17:57.810Z,14.00
2019-05-01T04:20:39.998Z,14.00
2019-05-01T04:23:30.115Z,12.20
2019-05-01T04:26:11.227Z,13.80
2019-05-01T04:29:17.593Z,15.40
2019-05-01T04:31:47.295Z,15.00
2019-05-01T04:34:21.580Z,14.80
2019-05-01T04:36:56.701Z,15.00
2019-05-01T04:39:59.775Z,14.00
2019-05-01T04:42:42.118Z,16.00
2019-05-01T04:45:51.254Z,16.40
2019-05-01T04:48:29.061Z,15.00
2019-05-01T04:51:09.305Z,16.60
2019-05-01T04:53:59.067Z,15.40
2019-05-01T04:56:41.409Z,15.40
2019-05-01T04:59:24.828Z,17.00
2019-05-01T05:02:06.306Z,14.00
2019-05-01T05:04:53.842Z,9.80
2019-05-01T05:07:52.514Z,16.40
2019-05-01T05:10:52.983Z,15.80
2019-05-01T05:13:47.458Z,14.60
2019-05-01T05:16:25.561Z,14.80
2019-05-01T05:19:02.648Z,13.80
2019-05-01T05:22:29.366Z,16.00
2019-05-01T05:24:45.077Z,14.60
2019-05-01T05:27:28.250Z,16.20
2019-05-01T05:30:01.777Z,16.80
2019-05-01T05:32:36.997Z,16.20
2019-05-01T05:35:11.895Z,18.40
2019-05-01T05:37:47.964Z,17.40
2019-05-01T05:40:21.183Z,20.60
2019-05-01T05:42:54.239Z,19.20
2019-05-01T05:45:27.310Z,18.40
2019-05-01T05:48:00.485Z,15.80
2019-05-01T05:50:36.701Z,18.20
2019-05-01T05:53:12.889Z,16.60
2019-05-01T05:55:48.154Z,18.40
2019-05-01T05:58:23.646Z,17.40
2019-05-01T06:00:59.300Z,17.00
2019-05-01T06:03:35.164Z,16.40
2019-05-01T06:06:09.965Z,18.60
2019-05-01T06:08:45.836Z,19.20
2019-05-01T06:11:19.193Z,18.00
2019-05-01T06:13:57.007Z,16.20
2019-05-01T06:16:30.989Z,16.20
2019-05-01T06:19:04.152Z,18.80
2019-05-01T06:21:39.156Z,17.80
2019-05-01T06:24:12.602Z,17.60
2019-05-01T06:26:46.122Z,20.00
2019-05-01T06:29:19.516Z,18.40
2019-05-01T06:31:54.019Z,18.40
2019-05-01T06:34:28.674Z,20.60
2019-05-01T06:37:02.116Z,16.80
2019-05-01T06:39:36.084Z,17.40
2019-05-01T06:42:09.891Z,16.40
2019-05-01T06:44:44.785Z,19.00
2019-05-01T06:47:17.995Z,18.80
2019-05-01T06:49:52.175Z,17.40
2019-05-01T06:52:29.309Z,17.20
2019-05-01T06:55:00.875Z,18.40
2019-05-01T06:57:38.551Z,18.00
2019-05-01T07:00:10.202Z,20.60
2019-05-01T07:02:45.119Z,19.00
2019-05-01T07:05:20.739Z,20.60
2019-05-01T07:07:55.666Z,22.20
2019-05-01T07:10:42.528Z,21.00
2019-05-01T07:13:04.947Z,19.80
2019-05-01T07:15:38.279Z,22.40
2019-05-01T07:18:11.598Z,21.80
2019-05-01T07:20:47.399Z,20.80
2019-05-01T07:23:20.651Z,25.40
2019-05-01T07:25:54.223Z,26.20
2019-05-01T07:28:29.082Z,27.00
2019-05-01T07:31:04.871Z,26.80
2019-05-01T07:33:36.540Z,27.00
2019-05-01T07:36:15.548Z,25.60
2019-05-01T07:38:46.141Z,26.80
2019-05-01T07:41:19.539Z,27.80
2019-05-01T07:43:54.866Z,24.60
2019-05-01T07:46:27.700Z,24.60
2019-05-01T07:49:01.074Z,23.80
2019-05-01T07:51:55.076Z,26.20
2019-05-01T07:54:28.750Z,24.20
2019-05-01T07:57:16.424Z,26.80
2019-05-01T08:00:03.151Z,27.00
2019-05-01T08:02:35.805Z,28.00
2019-05-01T08:05:40.822Z,27.00
2019-05-01T08:08:16.586Z,24.40
2019-05-01T08:11:05.354Z,25.60
2019-05-01T08:13:39.821Z,26.00
2019-05-01T08:16:28.871Z,25.80
2019-05-01T08:19:05.890Z,22.60
2019-05-01T08:21:47.207Z,21.20
2019-05-01T08:24:22.886Z,21.20
2019-05-01T08:26:59.735Z,19.60
2019-05-01T08:29:46.181Z,20.00
2019-05-01T08:32:39.168Z,19.60
2019-05-01T08:35:23.565Z,21.60
2019-05-01T08:38:01.550Z,20.40
2019-05-01T08:40:37.693Z,18.40
2019-05-01T08:43:28.789Z,18.20
2019-05-01T08:46:04.949Z,14.40
2019-05-01T08:48:45.276Z,18.60
2019-05-01T08:51:18.567Z,12.40
2019-05-01T08:53:57.647Z,17.80
2019-05-01T08:56:31.217Z,16.60
2019-05-01T08:59:11.276Z,17.00
2019-05-01T09:01:50.609Z,17.60
2019-05-01T09:04:30.496Z,18.20
2019-05-01T09:07:14.597Z,18.40
2019-05-01T09:09:50.964Z,19.80
2019-05-01T09:12:28.160Z,19.80
2019-05-01T09:15:07.104Z,19.80
2019-05-01T09:17:43.986Z,18.60
2019-05-01T09:20:36.460Z,17.00
2019-05-01T09:23:18.290Z,19.80
2019-05-01T09:25:57.338Z,19.20
2019-05-01T09:28:39.797Z,19.20
2019-05-01T09:31:12.828Z,17.60
2019-05-01T09:33:47.868Z,20.60
2019-05-01T09:36:27.495Z,16.00
2019-05-01T09:39:07.221Z,18.40
2019-05-01T09:41:47.440Z,17.40
2019-05-01T09:44:25.208Z,18.00
2019-05-01T09:47:00.783Z,16.40
2019-05-01T09:49:40.104Z,17.00
2019-05-01T09:52:29.763Z,19.40
2019-05-01T09:55:13.208Z,20.00
2019-05-01T09:57:51.773Z,16.00
2019-05-01T10:00:30.057Z,17.60
2019-05-01T10:03:13.143Z,56.75
2019-05-01T10:05:49.335Z,16.00
2019-05-01T10:08:40.056Z,17.80
2019-05-01T10:11:19.646Z,19.60
2019-05-01T10:13:58.393Z,19.00
2019-05-01T10:16:43.490Z,15.80
2019-05-01T10:19:28.061Z,18.60
2019-05-01T10:22:10.104Z,18.80
2019-05-01T10:24:47.072Z,18.80
2019-05-01T10:27:30.862Z,19.20
2019-05-01T10:30:03.497Z,20.40
2019-05-01T10:32:36.374Z,20.00
2019-05-01T10:35:09.348Z,18.60
2019-05-01T10:37:42.304Z,19.20
2019-05-01T10:40:15.367Z,17.60
2019-05-01T10:42:48.335Z,21.00
2019-05-01T10:45:21.283Z,21.00
2019-05-01T10:47:54.243Z,17.40
2019-05-01T10:50:27.142Z,18.20
2019-05-01T10:53:00.209Z,21.20
2019-05-01T10:55:33.200Z,18.60
2019-05-01T10:58:06.168Z,21.80
2019-05-01T11:00:51.163Z,20.20
2019-05-01T11:03:24.088Z,20.00
2019-05-01T11:05:57.161Z,18.40
2019-05-01T11:09:03.386Z,21.60
2019-05-01T11:11:47.416Z,18.80
2019-05-01T11:14:40.983Z,20.00
2019-05-01T11:17:15.467Z,21.20
2019-05-01T11:20:03.201Z,19.60
2019-05-01T11:23:03.429Z,21.80
2019-05-01T11:25:40.352Z,21.80
2019-05-01T11:28:26.738Z,20.60
2019-05-01T11:31:06.354Z,22.20
2019-05-01T11:33:49.005Z,23.20
2019-05-01T11:36:31.956Z,47.40
2019-05-01T11:39:42.112Z,38.60
2019-05-01T11:42:16.103Z,37.00
2019-05-01T11:44:49.502Z,35.40
2019-05-01T11:47:22.969Z,35.80
2019-05-01T11:50:16.402Z,33.80
2019-05-01T11:53:02.988Z,34.60
2019-05-01T11:55:44.391Z,36.20
2019-05-01T11:58:26.883Z,39.20
2019-05-01T12:01:11.132Z,39.00
2019-05-01T12:03:44.751Z,45.60
2019-05-01T12:06:31.374Z,42.80
2019-05-01T12:09:11.473Z,45.60
2019-05-01T12:12:10.054Z,42.60
2019-05-01T12:15:01.709Z,36.80
2019-05-01T12:20:59.861Z,33.00
2019-05-01T12:23:39.531Z,30.60
2019-05-01T12:26:19.416Z,29.00
2019-05-01T12:29:07.225Z,28.00
2019-05-01T12:31:46.011Z,24.20
2019-05-01T12:34:26.303Z,23.00
2019-05-01T12:37:04.936Z,20.20
2019-05-01T12:39:44.154Z,21.40
2019-05-01T12:42:25.952Z,21.20
2019-05-01T12:45:01.410Z,22.60
2019-05-01T12:47:41.258Z,21.80
2019-05-01T12:50:18.271Z,25.00
2019-05-01T12:52:58.100Z,26.80
2019-05-01T12:55:52.081Z,32.40
2019-05-01T12:58:33.948Z,33.20
2019-05-01T13:01:10.413Z,33.40
2019-05-01T13:03:45.128Z,32.00
2019-05-01T13:06:24.314Z,32.60
2019-05-01T13:09:05.962Z,34.40
2019-05-01T13:11:39.672Z,32.40
2019-05-01T13:14:16.668Z,32.00
2019-05-01T13:16:50.167Z,32.80
2019-05-01T13:19:23.656Z,24.40
2019-05-01T13:21:57.473Z,20.80
2019-05-01T13:24:34.141Z,13.60
2019-05-01T13:27:07.310Z,14.00
2019-05-01T13:29:41.572Z,13.40
2019-05-01T13:32:16.149Z,12.40
2019-05-01T13:34:52.906Z,15.20
2019-05-01T13:37:28.405Z,15.60
2019-05-01T13:40:09.364Z,15.40
2019-05-01T13:42:57.748Z,16.20
2019-05-01T13:45:33.356Z,17.60
2019-05-01T13:48:09.807Z,15.20
2019-05-01T13:50:43.850Z,14.80
2019-05-01T13:53:18.553Z,18.00
2019-05-01T13:55:56.454Z,16.20
2019-05-01T13:58:30.744Z,14.60
2019-05-01T14:01:11.419Z,17.40
2019-05-01T14:03:53.018Z,17.00
2019-05-01T14:06:32.996Z,15.40
2019-05-01T14:09:11.994Z,16.20
2019-05-01T14:11:56.379Z,14.20
2019-05-01T14:14:35.261Z,13.00
2019-05-01T14:17:13.993Z,17.00
2019-05-01T14:19:57.521Z,15.00
2019-05-01T14:22:41.536Z,14.80
2019-05-01T14:25:26.559Z,13.80
2019-05-01T14:28:20.929Z,14.60
2019-05-01T14:30:58.319Z,12.80
2019-05-01T14:33:41.281Z,14.60
2019-05-01T14:36:32.504Z,12.20
2019-05-01T14:39:09.585Z,15.60
2019-05-01T14:41:46.866Z,14.00
2019-05-01T14:44:35.628Z,13.60
2019-05-01T14:47:07.108Z,11.80
2019-05-01T14:49:46.101Z,15.00
2019-05-01T14:52:24.007Z,12.20
2019-05-01T14:55:40.599Z,12.20
2019-05-01T14:58:26.381Z,13.00
2019-05-01T15:01:05.417Z,11.80
2019-05-01T15:03:40.328Z,14.60
2019-05-01T15:06:31.036Z,13.60
2019-05-01T15:09:14.197Z,14.40
2019-05-01T15:11:59.565Z,13.80
2019-05-01T15:14:43.632Z,11.20
2019-05-01T15:17:23.325Z,12.40
2019-05-01T15:20:04.112Z,9.20
2019-05-01T15:22:42.344Z,12.60
2019-05-01T15:25:20.338Z,11.80
2019-05-01T15:27:54.634Z,12.20
2019-05-01T15:30:32.312Z,14.40
2019-05-01T15:33:15.360Z,11.20
2019-05-01T15:35:58.730Z,7.60
2019-05-01T15:38:42.760Z,9.00
2019-05-01T15:41:23.522Z,11.80
2019-05-01T15:44:19.803Z,6.60
2019-05-01T15:47:00.593Z,6.80
2019-05-01T15:49:40.090Z,6.60
2019-05-01T15:52:20.956Z,7.60
2019-05-01T15:55:07.541Z,10.60
2019-05-01T15:57:48.201Z,8.20
2019-05-01T16:00:29.965Z,8.00
2019-05-01T16:03:13.502Z,10.00
2019-05-01T16:06:13.657Z,15.80
2019-05-01T16:08:48.598Z,17.60
2019-05-01T16:11:25.359Z,19.80
2019-05-01T16:14:07.285Z,25.80
2019-05-01T16:16:54.645Z,27.00
2019-05-01T16:19:35.393Z,26.60
2019-05-01T16:22:16.840Z,21.60
2019-05-01T16:25:01.015Z,18.80
2019-05-01T16:27:57.415Z,16.60
2019-05-01T16:30:33.026Z,21.80
2019-05-01T16:33:23.730Z,21.80
2019-05-01T16:36:15.454Z,16.80
2019-05-01T16:39:03.985Z,16.20
2019-05-01T16:41:49.013Z,15.60
2019-05-01T16:44:30.258Z,17.20
2019-05-01T16:47:12.094Z,21.40
2019-05-01T16:49:47.796Z,25.00
2019-05-01T16:52:30.641Z,13.80
2019-05-01T16:55:26.316Z,12.00
2019-05-01T16:58:22.662Z,11.00
2019-05-01T17:01:09.310Z,12.80
2019-05-01T17:03:50.429Z,15.20
2019-05-01T17:06:32.748Z,13.00
2019-05-01T17:09:13.192Z,13.00
2019-05-01T17:11:52.329Z,14.20
2019-05-01T17:14:34.309Z,12.60
2019-05-01T17:17:10.144Z,11.80
2019-05-01T17:19:52.627Z,12.40
2019-05-01T17:22:42.084Z,15.60
2019-05-01T17:25:19.137Z,11.25
2019-05-01T17:28:03.059Z,12.40
2019-05-01T17:30:57.531Z,14.20
2019-05-01T17:33:41.930Z,13.20
2019-05-01T17:36:17.602Z,14.60
2019-05-01T17:39:01.240Z,15.00
2019-05-01T17:42:02.065Z,14.60
2019-05-01T17:44:55.949Z,16.80
2019-05-01T17:47:41.152Z,17.60
2019-05-01T17:50:16.543Z,17.20
2019-05-01T17:52:58.977Z,15.60
2019-05-01T17:55:35.854Z,17.40
2019-05-01T17:58:22.132Z,16.00
2019-05-01T18:01:15.870Z,17.00
2019-05-01T18:03:38.590Z,18.60
2019-05-01T18:06:41.992Z,16.80
2019-05-01T18:09:13.507Z,16.20
2019-05-01T18:11:53.605Z,16.80
2019-05-01T18:14:43.318Z,16.60
2019-05-01T18:17:23.860Z,17.80
2019-05-01T18:20:04.822Z,15.60
2019-05-01T18:22:42.828Z,15.60
2019-05-01T18:25:22.964Z,10.80
2019-05-01T18:28:14.039Z,13.60
2019-05-01T18:31:04.069Z,13.40
2019-05-01T18:33:37.289Z,15.80
2019-05-01T18:36:14.847Z,19.20
2019-05-01T18:38:48.922Z,19.40
2019-05-01T18:41:33.493Z,20.20
2019-05-01T18:44:10.231Z,16.60
2019-05-01T18:46:47.832Z,19.40
2019-05-01T18:49:28.338Z,18.60
2019-05-01T18:52:15.979Z,15.40
2019-05-01T18:55:01.894Z,18.20
2019-05-01T18:57:33.922Z,16.80
2019-05-01T19:00:13.018Z,17.40
2019-05-01T19:02:53.645Z,17.00
2019-05-01T19:05:31.699Z,16.60
2019-05-01T19:08:16.306Z,14.80
2019-05-01T19:10:53.671Z,19.00
2019-05-01T19:13:29.212Z,14.20
2019-05-01T19:16:14.309Z,14.40
2019-05-01T19:18:50.450Z,15.80
2019-05-01T19:21:27.326Z,15.40
2019-05-01T19:24:05.949Z,15.00
2019-05-01T19:26:44.146Z,15.80
2019-05-01T19:29:26.626Z,16.00
2019-05-01T19:32:06.438Z,17.60
2019-05-01T19:34:57.875Z,15.80
2019-05-01T19:37:35.662Z,15.60
2019-05-01T19:40:17.467Z,15.20
2019-05-01T19:42:53.614Z,16.60
2019-05-01T19:45:28.237Z,14.40
2019-05-01T19:48:03.720Z,14.60
2019-05-01T19:50:39.862Z,17.20
2019-05-01T19:53:17.563Z,17.00
2019-05-01T19:56:01.624Z,15.80
2019-05-01T19:58:44.224Z,15.40
2019-05-01T20:01:29.793Z,16.60
2019-05-01T20:04:25.116Z,20.00
2019-05-01T20:07:10.482Z,17.20
2019-05-01T20:09:56.423Z,17.60
2019-05-01T20:12:22.773Z,19.00
2019-05-01T20:15:01.650Z,16.80
2019-05-01T20:17:38.581Z,15.00
2019-05-01T20:20:16.290Z,16.60
2019-05-01T20:22:53.090Z,16.20
2019-05-01T20:25:55.818Z,18.80
2019-05-01T20:28:47.056Z,20.60
2019-05-01T20:31:50.730Z,17.60
2019-05-01T20:34:39.029Z,19.60
2019-05-01T20:37:24.089Z,19.40
2019-05-01T20:40:16.732Z,23.00
2019-05-01T20:43:10.824Z,20.00
2019-05-01T20:45:59.564Z,21.20
2019-05-01T20:49:06.774Z,21.80
2019-05-01T20:51:51.833Z,21.60
2019-05-01T20:54:33.850Z,23.80
2019-05-01T20:57:13.051Z,21.40
2019-05-01T21:00:03.573Z,21.20
2019-05-01T21:02:44.577Z,20.20
2019-05-01T21:05:37.487Z,19.00
2019-05-01T21:08:40.556Z,18.20
2019-05-01T21:11:26.696Z,20.40
2019-05-01T21:14:18.133Z,20.20
2019-05-01T21:16:55.937Z,22.00
2019-05-01T21:19:37.212Z,24.00
2019-05-01T21:22:16.435Z,23.40
2019-05-01T21:25:13.782Z,19.40
2019-05-01T21:27:57.236Z,20.80
2019-05-01T21:30:38.771Z,23.60
2019-05-01T21:33:16.590Z,21.40
2019-05-01T21:35:54.055Z,21.80
2019-05-01T21:38:40.871Z,21.80
2019-05-01T21:41:18.473Z,23.80
2019-05-01T21:43:54.311Z,23.20
2019-05-01T21:46:28.139Z,21.60
2019-05-01T21:49:24.809Z,23.40
2019-05-01T21:52:03.590Z,21.60
2019-05-01T21:54:37.432Z,21.60
2019-05-01T21:57:17.453Z,20.60
2019-05-01T21:59:55.282Z,21.60
2019-05-01T22:02:53.306Z,22.00
2019-05-01T22:05:34.678Z,21.00
2019-05-01T22:08:24.042Z,21.00
2019-05-01T22:11:22.556Z,22.00
2019-05-01T22:14:09.401Z,21.40
2019-05-01T22:16:53.151Z,21.00
2019-05-01T22:19:29.849Z,23.60
2019-05-01T22:22:13.421Z,22.80
2019-05-01T22:25:05.905Z,22.40
2019-05-01T22:30:56.998Z,22.60
2019-05-01T22:33:34.569Z,24.20
2019-05-01T22:36:10.663Z,23.80
2019-05-01T22:39:17.071Z,22.60
2019-05-01T22:42:09.090Z,22.80
2019-05-01T22:47:53.181Z,22.20
2019-05-01T22:50:42.614Z,22.80
2019-05-01T22:53:16.588Z,24.20
2019-05-01T22:56:04.233Z,21.60
2019-05-01T22:58:41.844Z,21.20
2019-05-01T23:01:18.080Z,24.80
2019-05-01T23:03:50.385Z,24.80
2019-05-01T23:06:23.346Z,24.80
2019-05-01T23:08:56.368Z,23.80
2019-05-01T23:11:29.643Z,22.40
2019-05-01T23:14:02.580Z,24.80
2019-05-01T23:16:35.452Z,24.40
2019-05-01T23:19:08.321Z,24.60
2019-05-01T23:21:41.272Z,23.60
2019-05-01T23:24:14.130Z,22.00
2019-05-01T23:26:48.041Z,25.40
2019-05-01T23:29:21.843Z,22.20
2019-05-01T23:31:54.726Z,24.80
2019-05-01T23:34:28.036Z,25.00
2019-05-01T23:37:00.892Z,24.40
2019-05-01T23:39:39.733Z,24.00
2019-05-01T23:42:08.762Z,22.60
2019-05-01T23:44:43.022Z,23.20
2019-05-01T23:47:16.311Z,21.40
2019-05-01T23:49:52.664Z,24.20
2019-05-01T23:52:24.218Z,24.00
2019-05-01T23:54:57.084Z,23.80
2019-05-01T23:57:29.974Z,24.20
